Time;durP1;ratioP1;P1;durP2;ratioP2;P2;SDS_P1;SDS_P2;PMS_P1;PMS_P2;Temp;Humidity;BMP_temperature;BMP_pressure;BME280_temperature;BME280_humidity;BME280_pressure;Samples;Min_cycle;Max_cycle;Signal;HPM_P1;HPM_P2
2022/05/29 00:02:29;;;;;;;14.30;6.27;;;;;;;;;;6291460;28;20093;-56
2022/05/29 00:05:30;;;;;;;14.73;6.40;;;;;;;;;;6279696;28;20041;-54
2022/05/29 00:08:34;;;;;;;12.65;5.93;;;;;;;;;;6293453;28;20037;-55
2022/05/29 00:11:34;;;;;;;16.35;6.78;;;;;;;;;;6286793;28;20072;-59
2022/05/29 00:14:37;;;;;;;15.30;6.53;;;;;;;;;;6290399;28;20445;-56
2022/05/29 00:17:37;;;;;;;;;;;;;;;;;;6283626;28;20044;-53
2022/05/29 00:20:39;;;;;;;16.33;6.80;;;;;;;;;;6271962;28;20685;-54
2022/05/29 00:23:42;;;;;;;18.05;6.93;;;;;;;;;;6278949;28;20064;-54
2022/05/29 00:26:44;;;;;;;14.75;7.57;;;;;;;;;;6283950;28;20053;-55
2022/05/29 00:29:45;;;;;;;19.30;7.60;;;;;;;;;;6285718;28;20068;-51
2022/05/29 00:32:46;;;;;;;16.35;7.68;;;;;;;;;;6280004;28;20045;-55
2022/05/29 00:35:46;;;;;;;15.63;7.88;;;;;;;;;;6287908;28;20047;-56
2022/05/29 00:38:48;;;;;;;13.50;7.32;;;;;;;;;;6282018;28;20174;-53
2022/05/29 00:41:48;;;;;;;14.00;7.13;;;;;;;;;;6284785;28;20041;-53
2022/05/29 00:44:50;;;;;;;16.45;7.60;;;;;;;;;;6282289;28;20415;-54
2022/05/29 00:47:52;;;;;;;16.65;7.55;;;;;;;;;;6289355;28;20056;-54
2022/05/29 00:50:59;;;;;;;35.20;11.05;;;;;;;;;;6289041;28;20053;-55
2022/05/29 00:54:00;;;;;;;87.55;21.88;;;;;;;;;;6288816;28;20086;-52
2022/05/29 00:57:01;;;;;;;45.65;15.27;;;;;;;;;;6267818;28;20084;-56
2022/05/29 01:00:14;;;;;;;38.10;12.07;;;;;;;;;;6291023;28;20837;-56
2022/05/29 01:03:15;;;;;;;30.25;10.90;;;;;;;;;;6284910;28;20110;-58
2022/05/29 01:06:16;;;;;;;22.58;8.88;;;;;;;;;;6288971;28;20052;-57
2022/05/29 01:09:16;;;;;;;23.02;9.73;;;;;;;;;;6283576;28;20131;-52
2022/05/29 01:12:26;;;;;;;23.58;9.40;;;;;;;;;;6289121;28;20044;-53
2022/05/29 01:15:39;;;;;;;15.60;8.13;;;;;;;;;;6284505;28;20051;-57
2022/05/29 01:19:04;;;;;;;25.60;9.57;;;;;;;;;;6289225;28;20060;-55
2022/05/29 01:22:23;;;;;;;23.38;9.77;;;;;;;;;;6285862;28;20045;-52
2022/05/29 01:25:48;;;;;;;17.20;8.40;;;;;;;;;;6284641;28;20151;-55
2022/05/29 01:28:55;;;;;;;16.30;8.15;;;;;;;;;;6283499;28;20055;-52
2022/05/29 01:32:10;;;;;;;16.23;7.95;;;;;;;;;;6287553;28;20079;-55
2022/05/29 01:35:22;;;;;;;15.95;8.10;;;;;;;;;;6285261;28;20088;-54
2022/05/29 01:38:30;;;;;;;20.58;8.73;;;;;;;;;;6282880;28;20145;-52
2022/05/29 01:41:42;;;;;;;19.55;9.13;;;;;;;;;;6288373;28;20044;-53
2022/05/29 01:44:53;;;;;;;;;;;;;;;;;;6283422;28;20773;-53
2022/05/29 01:48:10;;;;;;;24.25;7.82;;;;;;;;;;6287305;28;19971;-54
2022/05/29 01:51:18;;;;;;;18.25;8.32;;;;;;;;;;6286017;28;20099;-52
2022/05/29 01:54:33;;;;;;;20.52;8.30;;;;;;;;;;6284790;28;20134;-53
2022/05/29 01:57:40;;;;;;;14.43;7.63;;;;;;;;;;6280050;28;20060;-54
2022/05/29 02:00:43;;;;;;;19.45;9.43;;;;;;;;;;6288755;28;20099;-55
2022/05/29 02:03:49;;;;;;;20.00;9.98;;;;;;;;;;6284749;28;20056;-54
2022/05/29 02:10:16;;;;;;;19.15;8.70;;;;;;;;;;6277662;28;20130;-55
2022/05/29 02:13:32;;;;;;;13.05;7.30;;;;;;;;;;6281921;28;20045;-51
2022/05/29 02:16:39;;;;;;;15.45;7.57;;;;;;;;;;6283305;28;20462;-51
2022/05/29 02:19:42;;;;;;;13.82;7.22;;;;;;;;;;6278078;28;20039;-56
2022/05/29 02:22:45;;;;;;;16.98;6.95;;;;;;;;;;6288356;28;20113;-55
2022/05/29 02:25:47;;;;;;;16.02;6.50;;;;;;;;;;6286370;28;20052;-55
2022/05/29 02:28:54;;;;;;;20.52;7.97;;;;;;;;;;6286394;28;20052;-56
2022/05/29 02:32:36;;;;;;;26.33;10.82;;;;;;;;;;6283120;28;20052;-52
2022/05/29 02:35:44;;;;;;;18.47;8.03;;;;;;;;;;6277204;28;20090;-53
2022/05/29 02:38:50;;;;;;;20.65;8.88;;;;;;;;;;6282403;28;20056;-53
2022/05/29 02:42:14;;;;;;;34.80;13.40;;;;;;;;;;6284697;28;20558;-52
2022/05/29 02:45:23;;;;;;;17.35;9.30;;;;;;;;;;6278949;28;20047;-54
2022/05/29 02:49:06;;;;;;;18.33;10.32;;;;;;;;;;6288752;28;20052;-57
2022/05/29 02:52:13;;;;;;;21.07;10.30;;;;;;;;;;6258600;28;20083;-52
2022/05/29 02:55:16;;;;;;;20.52;10.43;;;;;;;;;;6280255;28;20344;-56
2022/05/29 02:58:21;;;;;;;18.75;10.25;;;;;;;;;;6287944;28;20075;-55
2022/05/29 03:01:44;;;;;;;21.63;9.65;;;;;;;;;;6280866;28;20051;-54
2022/05/29 03:04:51;;;;;;;24.42;11.63;;;;;;;;;;6287038;28;20165;-51
2022/05/29 03:08:09;;;;;;;19.63;10.48;;;;;;;;;;6285045;28;20056;-55
2022/05/29 03:11:28;;;;;;;23.25;11.00;;;;;;;;;;6282644;28;20094;-52
2022/05/29 03:14:46;;;;;;;17.50;9.95;;;;;;;;;;6289996;28;20503;-55
2022/05/29 03:18:05;;;;;;;20.65;10.43;;;;;;;;;;6290849;28;20090;-55
2022/05/29 03:21:25;;;;;;;22.35;11.02;;;;;;;;;;6283023;28;20144;-58
2022/05/29 03:24:32;;;;;;;20.85;10.48;;;;;;;;;;6286905;28;20149;-58
2022/05/29 03:27:45;;;;;;;24.77;11.00;;;;;;;;;;6282827;28;20053;-53
2022/05/29 03:30:49;;;;;;;21.83;10.73;;;;;;;;;;6284073;28;20047;-53
2022/05/29 03:33:50;;;;;;;22.13;11.55;;;;;;;;;;6287259;28;20094;-54
2022/05/29 03:36:51;;;;;;;24.20;10.90;;;;;;;;;;6282497;28;20550;-52
2022/05/29 03:39:52;;;;;;;22.02;10.65;;;;;;;;;;6284984;28;20488;-58
2022/05/29 03:42:53;;;;;;;20.23;10.85;;;;;;;;;;6285184;28;20049;-57
2022/05/29 03:45:53;;;;;;;28.13;12.57;;;;;;;;;;6284389;28;20488;-52
2022/05/29 03:48:54;;;;;;;27.58;13.02;;;;;;;;;;6289013;28;20143;-57
2022/05/29 03:51:55;;;;;;;24.95;12.82;;;;;;;;;;6286754;28;20504;-57
2022/05/29 03:54:55;;;;;;;24.83;12.43;;;;;;;;;;6286892;28;20499;-57
2022/05/29 03:57:56;;;;;;;25.75;12.82;;;;;;;;;;6286913;28;20045;-57
2022/05/29 04:00:57;;;;;;;28.08;13.35;;;;;;;;;;6284055;28;21070;-57
2022/05/29 04:03:58;;;;;;;28.48;13.10;;;;;;;;;;6289862;28;20049;-55
2022/05/29 04:06:59;;;;;;;25.23;12.52;;;;;;;;;;6285928;28;20052;-55
2022/05/29 04:13:19;;;;;;;26.38;13.45;;;;;;;;;;6277485;28;20037;-55
2022/05/29 04:16:19;;;;;;;21.80;11.63;;;;;;;;;;6283522;28;20132;-55
2022/05/29 04:19:20;;;;;;;22.55;11.10;;;;;;;;;;6286234;28;20037;-55
2022/05/29 04:22:22;;;;;;;20.77;10.95;;;;;;;;;;6281161;28;20040;-56
2022/05/29 04:25:22;;;;;;;21.27;10.85;;;;;;;;;;6292354;28;20045;-55
2022/05/29 04:28:24;;;;;;;20.90;10.40;;;;;;;;;;6284045;28;20045;-54
2022/05/29 04:31:24;;;;;;;22.00;11.57;;;;;;;;;;6276985;28;20068;-59
2022/05/29 04:34:25;;;;;;;23.15;11.45;;;;;;;;;;6284578;28;20487;-53
2022/05/29 04:37:27;;;;;;;21.85;11.02;;;;;;;;;;6291097;28;20044;-58
2022/05/29 04:40:30;;;;;;;;;;;;;;;;;;6282713;28;20045;-50
2022/05/29 04:43:30;;;;;;;28.00;14.65;;;;;;;;;;6286368;28;19921;-55
2022/05/29 04:46:31;;;;;;;30.27;17.77;;;;;;;;;;6289809;28;20418;-56
2022/05/29 04:49:31;;;;;;;30.85;18.30;;;;;;;;;;6290454;28;20493;-53
2022/05/29 04:52:34;;;;;;;34.20;19.15;;;;;;;;;;6287264;28;20045;-56
2022/05/29 04:55:35;;;;;;;38.70;19.20;;;;;;;;;;6283503;28;20039;-59
2022/05/29 04:58:35;;;;;;;22.38;12.65;;;;;;;;;;6267286;28;20545;-55
2022/05/29 05:01:36;;;;;;;24.52;13.30;;;;;;;;;;6289354;28;20083;-57
2022/05/29 05:04:36;;;;;;;20.60;11.35;;;;;;;;;;6268066;28;20052;-58
2022/05/29 05:07:37;;;;;;;21.23;10.05;;;;;;;;;;6285703;28;20132;-58
2022/05/29 05:10:40;;;;;;;17.23;9.23;;;;;;;;;;6284180;28;20040;-59
2022/05/29 05:13:40;;;;;;;20.05;9.52;;;;;;;;;;6287292;28;20135;-56
2022/05/29 05:16:41;;;;;;;19.20;9.00;;;;;;;;;;6286369;28;20048;-54
2022/05/29 05:19:42;;;;;;;16.92;8.25;;;;;;;;;;6286023;28;20131;-57
2022/05/29 05:22:42;;;;;;;17.63;8.30;;;;;;;;;;6286416;28;20044;-56
2022/05/29 05:25:43;;;;;;;13.48;8.27;;;;;;;;;;6289966;28;20120;-58
2022/05/29 05:28:44;;;;;;;15.27;7.47;;;;;;;;;;6285428;28;20098;-58
2022/05/29 05:31:44;;;;;;;17.00;7.10;;;;;;;;;;6288449;28;20385;-51
2022/05/29 05:34:45;;;;;;;13.88;6.57;;;;;;;;;;6284766;28;20041;-58
2022/05/29 05:37:46;;;;;;;16.80;7.03;;;;;;;;;;6289306;28;20045;-59
2022/05/29 05:40:46;;;;;;;14.73;6.45;;;;;;;;;;6307131;28;20050;-57
2022/05/29 05:43:47;;;;;;;14.95;7.03;;;;;;;;;;6284592;28;20131;-59
2022/05/29 05:46:56;;;;;;;20.15;7.20;;;;;;;;;;6283102;28;20159;-56
2022/05/29 05:49:56;;;;;;;16.90;7.25;;;;;;;;;;6286901;28;20491;-55
2022/05/29 05:52:57;;;;;;;15.02;6.10;;;;;;;;;;6286002;28;20055;-55
2022/05/29 05:55:57;;;;;;;12.60;5.45;;;;;;;;;;6288908;28;20166;-56
2022/05/29 05:58:58;;;;;;;11.30;5.03;;;;;;;;;;6282839;28;20047;-56
2022/05/29 06:01:59;;;;;;;10.27;4.90;;;;;;;;;;6289261;28;20045;-55
2022/05/29 06:04:59;;;;;;;12.07;4.82;;;;;;;;;;6287189;28;20522;-58
2022/05/29 06:08:00;;;;;;;9.45;3.72;;;;;;;;;;6284509;28;20052;-55
2022/05/29 06:11:00;;;;;;;9.38;3.13;;;;;;;;;;6285543;28;20037;-56
2022/05/29 06:14:01;;;;;;;9.80;2.90;;;;;;;;;;6282190;28;20058;-54
2022/05/29 06:17:03;;;;;;;10.55;3.72;;;;;;;;;;6284695;28;20048;-55
2022/05/29 06:20:06;;;;;;;11.13;3.97;;;;;;;;;;6280862;28;20411;-55
2022/05/29 06:23:07;;;;;;;8.18;3.22;;;;;;;;;;6283280;28;20126;-59
2022/05/29 06:26:11;;;;;;;12.35;2.80;;;;;;;;;;6287971;28;20454;-59
2022/05/29 06:29:12;;;;;;;6.90;2.75;;;;;;;;;;6287456;28;20174;-56
2022/05/29 06:32:15;;;;;;;8.73;3.17;;;;;;;;;;6290684;28;20049;-54
2022/05/29 06:35:16;;;;;;;6.28;2.70;;;;;;;;;;6286980;28;20818;-57
2022/05/29 06:38:16;;;;;;;10.35;3.05;;;;;;;;;;6288084;28;20142;-53
2022/05/29 06:41:20;;;;;;;7.47;2.63;;;;;;;;;;6297785;28;20549;-59
2022/05/29 06:44:20;;;;;;;7.60;3.00;;;;;;;;;;6288877;28;20040;-55
2022/05/29 06:47:21;;;;;;;9.70;3.30;;;;;;;;;;6290928;28;20094;-53
2022/05/29 06:50:21;;;;;;;8.77;2.25;;;;;;;;;;6292473;28;20079;-52
2022/05/29 06:53:22;;;;;;;8.02;2.65;;;;;;;;;;6290105;28;20495;-57
2022/05/29 06:56:24;;;;;;;9.30;2.10;;;;;;;;;;6285153;28;20104;-55
2022/05/29 06:59:24;;;;;;;10.20;2.50;;;;;;;;;;6291124;28;20091;-58
2022/05/29 07:09:06;;;;;;;7.57;2.78;;;;;;;;;;6278571;28;20052;-57
2022/05/29 07:12:15;;;;;;;7.13;2.20;;;;;;;;;;6274849;28;20174;-53
2022/05/29 07:15:17;;;;;;;8.43;2.25;;;;;;;;;;6284318;28;20041;-58
2022/05/29 07:18:19;;;;;;;8.00;2.40;;;;;;;;;;6275169;28;20044;-54
2022/05/29 07:21:21;;;;;;;10.23;2.53;;;;;;;;;;6283924;28;20147;-57
2022/05/29 07:24:21;;;;;;;7.57;2.33;;;;;;;;;;6261121;28;20057;-54
2022/05/29 07:27:22;;;;;;;7.30;2.47;;;;;;;;;;6285725;28;20083;-55
2022/05/29 07:30:23;;;;;;;7.15;2.25;;;;;;;;;;6288307;28;20098;-53
2022/05/29 07:33:25;;;;;;;12.77;2.30;;;;;;;;;;6286604;28;20559;-58
2022/05/29 07:36:26;;;;;;;;;;;;;;;;;;6262854;28;20048;-56
2022/05/29 07:39:26;;;;;;;9.80;2.53;;;;;;;;;;6282247;28;20028;-55
2022/05/29 07:45:52;;;;;;;7.47;2.17;;;;;;;;;;6285503;28;20140;-58
2022/05/29 07:48:53;;;;;;;9.65;2.58;;;;;;;;;;6283607;28;20143;-57
2022/05/29 07:51:54;;;;;;;9.60;2.60;;;;;;;;;;6280202;28;20049;-57
2022/05/29 07:54:54;;;;;;;7.85;3.05;;;;;;;;;;6279164;28;20052;-58
2022/05/29 07:57:55;;;;;;;8.40;2.60;;;;;;;;;;6284630;28;20680;-57
2022/05/29 08:00:56;;;;;;;6.90;2.30;;;;;;;;;;6291515;28;20045;-55
2022/05/29 08:03:56;;;;;;;7.25;2.50;;;;;;;;;;6269773;28;20044;-55
2022/05/29 08:06:57;;;;;;;6.60;2.38;;;;;;;;;;6295454;28;20450;-57
2022/05/29 08:09:58;;;;;;;6.05;2.00;;;;;;;;;;6292186;28;20041;-56
2022/05/29 08:12:59;;;;;;;6.15;2.67;;;;;;;;;;6293249;28;20155;-58
2022/05/29 08:15:59;;;;;;;8.30;2.70;;;;;;;;;;6292887;28;20048;-59
2022/05/29 08:19:00;;;;;;;9.65;2.38;;;;;;;;;;6289602;28;20399;-56
2022/05/29 08:22:00;;;;;;;8.00;2.55;;;;;;;;;;6292743;28;20120;-58
2022/05/29 08:31:40;;;;;;;8.10;2.15;;;;;;;;;;6289458;28;20044;-56
2022/05/29 08:34:43;;;;;;;8.82;2.47;;;;;;;;;;6270752;28;20585;-54
2022/05/29 08:37:44;;;;;;;6.07;2.28;;;;;;;;;;6291963;28;20076;-54
2022/05/29 08:40:51;;;;;;;7.78;2.10;;;;;;;;;;6287012;28;20049;-59
2022/05/29 08:44:03;;;;;;;5.78;1.90;;;;;;;;;;6265363;28;20037;-55
2022/05/29 08:47:04;;;;;;;10.15;2.83;;;;;;;;;;6283851;28;20442;-59
2022/05/29 08:50:10;;;;;;;5.63;2.58;;;;;;;;;;6272390;28;20051;-58
2022/05/29 08:53:41;;;;;;;7.20;2.10;;;;;;;;;;6286478;28;20488;-58
2022/05/29 08:56:51;;;;;;;7.10;2.75;;;;;;;;;;6288246;28;20060;-58
2022/05/29 08:59:57;;;;;;;8.52;2.85;;;;;;;;;;6286557;28;20055;-59
2022/05/29 09:03:03;;;;;;;7.30;2.25;;;;;;;;;;6286287;28;20052;-55
2022/05/29 09:06:18;;;;;;;5.63;2.50;;;;;;;;;;6284876;28;20044;-57
2022/05/29 09:09:33;;;;;;;5.22;2.08;;;;;;;;;;6282692;28;20500;-58
2022/05/29 09:12:39;;;;;;;7.72;2.20;;;;;;;;;;6277170;28;20052;-59
2022/05/29 09:15:44;;;;;;;6.32;2.30;;;;;;;;;;6273995;28;20041;-58
2022/05/29 09:19:00;;;;;;;8.88;2.80;;;;;;;;;;6273681;28;20057;-56
2022/05/29 09:22:23;;;;;;;9.07;2.50;;;;;;;;;;6288136;28;22064;-58
2022/05/29 09:25:33;;;;;;;5.93;2.00;;;;;;;;;;6287212;28;20175;-58
2022/05/29 09:28:42;;;;;;;6.10;2.40;;;;;;;;;;6289800;28;20036;-56
2022/05/29 09:31:42;;;;;;;6.30;2.58;;;;;;;;;;6287365;28;20048;-58
2022/05/29 09:34:57;;;;;;;5.40;2.35;;;;;;;;;;6289382;28;20928;-54
2022/05/29 09:38:04;;;;;;;7.82;2.75;;;;;;;;;;6291327;28;20051;-55
2022/05/29 09:41:09;;;;;;;9.18;2.60;;;;;;;;;;6286853;28;20454;-56
2022/05/29 09:44:16;;;;;;;6.38;3.35;;;;;;;;;;6290279;28;20071;-55
2022/05/29 09:50:56;;;;;;;8.30;2.60;;;;;;;;;;6280665;28;20390;-59
2022/05/29 09:54:00;;;;;;;5.80;2.20;;;;;;;;;;6288157;28;20079;-58
2022/05/29 09:57:13;;;;;;;5.40;2.45;;;;;;;;;;6289440;28;20064;-59
2022/05/29 10:00:31;;;;;;;9.30;2.75;;;;;;;;;;6288289;28;20063;-58
2022/05/29 10:03:43;;;;;;;7.40;2.40;;;;;;;;;;6288173;28;20056;-56
2022/05/29 10:06:47;;;;;;;7.13;2.30;;;;;;;;;;6286060;28;20076;-57
2022/05/29 10:10:00;;;;;;;5.80;2.58;;;;;;;;;;6280061;28;20040;-56
2022/05/29 10:13:01;;;;;;;10.05;2.40;;;;;;;;;;6287101;28;20076;-58
2022/05/29 10:16:02;;;;;;;5.40;2.20;;;;;;;;;;6308614;28;20056;-58
2022/05/29 10:19:08;;;;;;;8.55;2.53;;;;;;;;;;6288733;28;20585;-55
2022/05/29 10:22:32;;;;;;;5.68;2.53;;;;;;;;;;6289379;28;20048;-57
2022/05/29 10:25:55;;;;;;;9.70;4.05;;;;;;;;;;6278495;28;20068;-56
2022/05/29 10:28:57;;;;;;;8.30;2.60;;;;;;;;;;6283696;28;20052;-56
2022/05/29 10:32:00;;;;;;;11.80;2.58;;;;;;;;;;6291814;28;20114;-56
2022/05/29 10:35:25;;;;;;;7.72;2.90;;;;;;;;;;6284816;28;20139;-56
2022/05/29 10:38:28;;;;;;;6.20;2.35;;;;;;;;;;6267675;28;20086;-56
2022/05/29 10:41:36;;;;;;;6.55;2.35;;;;;;;;;;6267264;28;20594;-55
2022/05/29 10:44:38;;;;;;;7.70;2.50;;;;;;;;;;6266808;28;20143;-64
2022/05/29 10:47:45;;;;;;;;;;;;;;;;;;6267484;28;20071;-60
2022/05/29 10:51:08;;;;;;;7.03;2.42;;;;;;;;;;6270579;28;19952;-59
2022/05/29 10:54:30;;;;;;;6.55;2.28;;;;;;;;;;6271756;28;20558;-59
2022/05/29 10:57:52;;;;;;;4.68;1.98;;;;;;;;;;6272058;28;20396;-59
2022/05/29 11:00:58;;;;;;;7.88;2.70;;;;;;;;;;6242930;28;20535;-57
2022/05/29 11:04:05;;;;;;;4.47;1.90;;;;;;;;;;6253320;28;20137;-60
2022/05/29 11:07:41;;;;;;;4.97;2.13;;;;;;;;;;6264907;28;20044;-57
2022/05/29 11:10:57;;;;;;;5.70;2.33;;;;;;;;;;6268005;28;20174;-60
2022/05/29 11:14:27;;;;;;;7.65;2.63;;;;;;;;;;6270825;28;20612;-59
2022/05/29 11:17:56;;;;;;;7.00;2.30;;;;;;;;;;6246077;28;20076;-57
2022/05/29 11:21:05;;;;;;;6.13;2.33;;;;;;;;;;6263874;28;21015;-60
2022/05/29 11:24:08;;;;;;;14.13;5.38;;;;;;;;;;6266388;28;20075;-61
2022/05/29 11:27:40;;;;;;;10.65;3.83;;;;;;;;;;6254758;28;20249;-60
2022/05/29 11:31:00;;;;;;;6.80;2.90;;;;;;;;;;6260743;28;20064;-61
2022/05/29 11:34:21;;;;;;;15.40;8.35;;;;;;;;;;6252457;28;20098;-61
2022/05/29 11:37:42;;;;;;;6.07;2.30;;;;;;;;;;6254641;28;20148;-61
2022/05/29 11:40:48;;;;;;;9.68;5.30;;;;;;;;;;6264993;28;20067;-61
2022/05/29 11:44:18;;;;;;;6.75;2.97;;;;;;;;;;6261167;28;20099;-60
2022/05/29 11:51:08;;;;;;;9.30;3.23;;;;;;;;;;6265548;28;20032;-59
2022/05/29 11:54:36;;;;;;;7.05;2.63;;;;;;;;;;6261636;28;21004;-58
2022/05/29 11:57:46;;;;;;;8.85;2.40;;;;;;;;;;6264584;28;20677;-61
2022/05/29 12:00:57;;;;;;;4.75;2.30;;;;;;;;;;6267079;28;20180;-61
2022/05/29 12:04:21;;;;;;;5.00;2.30;;;;;;;;;;6264885;28;20143;-60
2022/05/29 12:07:29;;;;;;;7.10;2.50;;;;;;;;;;6263457;28;20124;-66
2022/05/29 12:10:46;;;;;;;5.43;2.25;;;;;;;;;;6265557;28;21455;-60
2022/05/29 12:13:58;;;;;;;8.98;3.30;;;;;;;;;;6260245;28;20573;-58
2022/05/29 12:17:17;;;;;;;6.47;3.30;;;;;;;;;;6267428;28;20512;-60
2022/05/29 12:20:38;;;;;;;6.55;3.30;;;;;;;;;;6270199;28;20048;-57
2022/05/29 12:23:44;;;;;;;9.93;3.42;;;;;;;;;;6272755;28;20140;-60
2022/05/29 12:26:52;;;;;;;7.00;3.25;;;;;;;;;;6269437;28;20070;-57
2022/05/29 12:30:00;;;;;;;9.07;3.38;;;;;;;;;;6262280;28;20049;-59
2022/05/29 12:33:11;;;;;;;6.13;3.10;;;;;;;;;;6263447;28;20431;-59
2022/05/29 12:36:15;;;;;;;9.10;3.10;;;;;;;;;;6262695;28;20136;-58
2022/05/29 12:39:40;;;;;;;6.57;2.90;;;;;;;;;;6270273;28;20059;-60
2022/05/29 12:43:02;;;;;;;6.25;3.20;;;;;;;;;;6268976;28;20036;-60
2022/05/29 12:46:24;;;;;;;6.32;3.03;;;;;;;;;;6264670;28;20053;-59
2022/05/29 12:49:56;;;;;;;8.10;2.60;;;;;;;;;;6272031;28;20640;-59
2022/05/29 12:53:06;;;;;;;6.67;2.73;;;;;;;;;;6262928;28;20061;-60
2022/05/29 12:56:15;;;;;;;5.43;2.60;;;;;;;;;;6275194;28;20309;-59
2022/05/29 12:59:46;;;;;;;9.30;2.75;;;;;;;;;;6270333;28;20535;-59
2022/05/29 13:03:08;;;;;;;6.97;2.70;;;;;;;;;;6268131;28;20049;-60
2022/05/29 13:06:09;;;;;;;5.20;2.60;;;;;;;;;;6268485;28;20139;-59
2022/05/29 13:09:34;;;;;;;8.77;2.20;;;;;;;;;;6253853;28;20183;-60
2022/05/29 13:12:40;;;;;;;8.52;2.78;;;;;;;;;;6261744;28;20049;-61
2022/05/29 13:15:42;;;;;;;7.78;2.90;;;;;;;;;;6268338;28;20044;-58
2022/05/29 13:19:15;;;;;;;7.20;2.60;;;;;;;;;;6274933;28;20056;-60
2022/05/29 13:22:15;;;;;;;5.70;2.70;;;;;;;;;;6277122;28;20144;-58
2022/05/29 13:25:28;;;;;;;7.53;2.80;;;;;;;;;;6265338;28;20722;-60
2022/05/29 13:28:32;;;;;;;5.53;2.67;;;;;;;;;;6270964;28;20156;-60
2022/05/29 13:31:54;;;;;;;8.18;2.90;;;;;;;;;;6270310;28;20910;-61
2022/05/29 13:35:04;;;;;;;5.18;2.38;;;;;;;;;;6264767;28;20040;-60
2022/05/29 13:38:04;;;;;;;7.50;2.70;;;;;;;;;;6275015;28;20052;-58
2022/05/29 13:41:05;;;;;;;7.78;2.42;;;;;;;;;;6273277;28;20134;-58
2022/05/29 13:44:29;;;;;;;18.05;5.07;;;;;;;;;;6267045;28;20372;-61
2022/05/29 13:47:36;;;;;;;12.40;3.83;;;;;;;;;;6263521;28;20198;-60
2022/05/29 13:50:50;;;;;;;7.60;2.72;;;;;;;;;;6266307;28;20040;-60
2022/05/29 13:54:07;;;;;;;5.38;2.88;;;;;;;;;;6250247;28;20056;-60
2022/05/29 13:57:10;;;;;;;9.20;3.63;;;;;;;;;;6269806;28;20052;-60
2022/05/29 14:07:09;;;;;;;10.68;4.10;;;;;;;;;;6267351;28;20055;-59
2022/05/29 14:10:15;;;;;;;7.70;2.58;;;;;;;;;;6255377;28;20053;-60
2022/05/29 14:13:31;;;;;;;16.52;4.45;;;;;;;;;;6257541;28;20843;-60
2022/05/29 14:16:43;;;;;;;9.13;3.53;;;;;;;;;;6262439;28;20074;-65
2022/05/29 14:20:04;;;;;;;8.60;3.53;;;;;;;;;;6265050;28;20113;-63
2022/05/29 14:23:28;;;;;;;8.32;3.67;;;;;;;;;;6254678;28;20549;-65
2022/05/29 14:27:02;;;;;;;5.95;3.03;;;;;;;;;;6264877;28;20163;-63
2022/05/29 14:30:22;;;;;;;7.72;3.60;;;;;;;;;;6267366;28;20514;-62
2022/05/29 14:34:01;;;;;;;7.47;3.15;;;;;;;;;;6269925;28;20321;-63
2022/05/29 14:37:07;;;;;;;6.40;3.20;;;;;;;;;;6274568;28;20052;-63
2022/05/29 14:40:20;;;;;;;5.35;2.88;;;;;;;;;;6280562;28;20047;-63
2022/05/29 14:43:25;;;;;;;10.48;5.10;;;;;;;;;;6257252;28;20401;-63
2022/05/29 14:49:54;;;;;;;8.00;3.33;;;;;;;;;;6252193;28;22137;-62
2022/05/29 14:53:12;;;;;;;5.00;2.50;;;;;;;;;;6270618;28;20727;-63
2022/05/29 14:56:49;;;;;;;9.60;3.00;;;;;;;;;;6268499;28;20332;-62
2022/05/29 14:59:50;;;;;;;6.07;2.28;;;;;;;;;;6252920;28;20590;-62
2022/05/29 15:02:51;;;;;;;6.13;2.92;;;;;;;;;;6252753;28;20057;-63
2022/05/29 15:05:56;;;;;;;7.53;2.60;;;;;;;;;;6262526;28;20509;-63
2022/05/29 15:12:30;;;;;;;6.45;2.70;;;;;;;;;;6269073;28;20132;-63
2022/05/29 15:15:33;;;;;;;9.38;3.20;;;;;;;;;;6270044;28;20052;-62
2022/05/29 15:18:35;;;;;;;6.15;3.10;;;;;;;;;;6257591;28;20049;-62
2022/05/29 15:25:18;;;;;;;7.55;3.35;;;;;;;;;;6266600;28;20045;-63
2022/05/29 15:28:19;;;;;;;7.50;3.28;;;;;;;;;;6258651;28;20053;-60
2022/05/29 15:31:22;;;;;;;6.63;3.05;;;;;;;;;;6264477;28;20483;-63
2022/05/29 15:34:25;;;;;;;5.78;2.80;;;;;;;;;;6258174;28;20080;-61
2022/05/29 15:38:01;;;;;;;6.10;3.35;;;;;;;;;;6265525;28;20604;-61
2022/05/29 15:41:37;;;;;;;7.78;3.10;;;;;;;;;;6256404;28;20052;-61
2022/05/29 15:44:50;;;;;;;6.30;3.10;;;;;;;;;;6261020;28;20077;-62
2022/05/29 15:48:15;;;;;;;8.07;2.78;;;;;;;;;;6274444;28;20105;-61
2022/05/29 15:51:53;;;;;;;7.43;2.80;;;;;;;;;;6267455;28;20072;-61
2022/05/29 15:55:13;;;;;;;8.32;3.20;;;;;;;;;;6261786;28;20044;-61
2022/05/29 15:58:23;;;;;;;6.28;3.20;;;;;;;;;;6260114;28;20045;-61
2022/05/29 16:01:24;;;;;;;7.72;2.83;;;;;;;;;;6265083;28;20560;-61
2022/05/29 16:04:33;;;;;;;9.80;3.10;;;;;;;;;;6260822;28;20052;-62
2022/05/29 16:07:37;;;;;;;7.68;3.05;;;;;;;;;;6273191;28;20087;-61
2022/05/29 16:10:39;;;;;;;7.60;3.20;;;;;;;;;;6263115;28;20126;-61
2022/05/29 16:13:42;;;;;;;7.30;2.80;;;;;;;;;;6263080;28;20065;-61
2022/05/29 16:17:04;;;;;;;7.40;2.97;;;;;;;;;;6254397;28;20132;-61
2022/05/29 16:20:13;;;;;;;6.53;2.95;;;;;;;;;;6278438;28;20499;-61
2022/05/29 16:23:28;;;;;;;8.48;3.20;;;;;;;;;;6267556;28;20136;-61
2022/05/29 16:26:56;;;;;;;6.47;2.92;;;;;;;;;;6277534;28;20664;-61
2022/05/29 16:30:07;;;;;;;7.20;3.10;;;;;;;;;;6277958;28;20044;-61
2022/05/29 16:33:12;;;;;;;8.10;3.33;;;;;;;;;;6263466;28;20106;-61
2022/05/29 16:36:36;;;;;;;6.55;3.35;;;;;;;;;;6275195;28;20071;-61
2022/05/29 16:50:16;;;;;;;7.05;3.10;;;;;;;;;;6249711;28;20172;-61
2022/05/29 16:53:18;;;;;;;5.25;3.28;;;;;;;;;;6268540;28;20251;-61
2022/05/29 16:56:38;;;;;;;6.90;3.35;;;;;;;;;;6277840;28;20076;-60
2022/05/29 16:59:45;;;;;;;7.38;3.08;;;;;;;;;;6271613;28;20137;-61
2022/05/29 17:03:19;;;;;;;6.35;3.08;;;;;;;;;;6273952;28;20056;-60
2022/05/29 17:06:31;;;;;;;7.85;3.33;;;;;;;;;;6270273;28;20051;-59
2022/05/29 17:09:49;;;;;;;8.07;3.30;;;;;;;;;;6275564;28;20048;-61
2022/05/29 17:12:49;;;;;;;6.93;3.22;;;;;;;;;;6276452;28;20565;-60
2022/05/29 17:15:54;;;;;;;6.10;3.42;;;;;;;;;;6276736;28;20076;-61
2022/05/29 17:18:55;;;;;;;8.50;4.05;;;;;;;;;;6278315;28;20135;-61
2022/05/29 17:22:14;;;;;;;9.40;3.80;;;;;;;;;;6279174;28;20053;-61
2022/05/29 17:25:25;;;;;;;10.07;3.90;;;;;;;;;;6275753;28;20454;-61
2022/05/29 17:28:42;;;;;;;7.80;3.83;;;;;;;;;;6278410;28;20044;-67
2022/05/29 17:31:58;;;;;;;8.18;4.40;;;;;;;;;;6277361;28;20044;-61
2022/05/29 17:35:08;;;;;;;13.80;5.00;;;;;;;;;;6279631;28;20045;-60
2022/05/29 17:38:17;;;;;;;9.55;4.40;;;;;;;;;;6279030;28;20776;-60
2022/05/29 17:41:18;;;;;;;8.57;4.22;;;;;;;;;;6271833;28;20048;-59
2022/05/29 17:44:19;;;;;;;7.45;3.83;;;;;;;;;;6268994;28;20167;-60
2022/05/29 17:47:29;;;;;;;8.10;4.30;;;;;;;;;;6275370;28;20056;-60
2022/05/29 17:50:33;;;;;;;10.57;4.90;;;;;;;;;;6274938;28;20056;-59
2022/05/29 17:54:27;;;;;;;9.35;4.30;;;;;;;;;;6275440;28;20060;-60
2022/05/29 17:57:32;;;;;;;9.48;4.72;;;;;;;;;;6251709;28;20048;-59
2022/05/29 18:00:34;;;;;;;9.85;4.47;;;;;;;;;;6262542;28;20049;-60
2022/05/29 18:03:35;;;;;;;10.52;4.80;;;;;;;;;;6278827;28;20048;-60
2022/05/29 18:06:36;;;;;;;14.02;5.22;;;;;;;;;;6273082;28;20732;-60
2022/05/29 18:09:38;;;;;;;11.30;4.70;;;;;;;;;;6280785;28;20535;-60
2022/05/29 18:12:39;;;;;;;;;;;;;;;;;;6272291;28;20049;-61
2022/05/29 18:15:39;;;;;;;10.65;4.85;;;;;;;;;;6272318;28;20531;-61
2022/05/29 18:18:40;;;;;;;9.60;5.00;;;;;;;;;;6274931;28;20095;-60
2022/05/29 18:21:41;;;;;;;10.15;5.65;;;;;;;;;;6277286;28;20369;-60
2022/05/29 18:24:42;;;;;;;12.20;5.97;;;;;;;;;;6268884;28;20056;-61
2022/05/29 18:27:44;;;;;;;14.70;6.40;;;;;;;;;;6280270;28;20057;-60
2022/05/29 18:30:45;;;;;;;12.75;6.20;;;;;;;;;;6276609;28;20472;-60
2022/05/29 18:33:45;;;;;;;9.43;6.03;;;;;;;;;;6276037;28;20052;-60
2022/05/29 18:36:46;;;;;;;9.00;5.80;;;;;;;;;;6276569;28;20485;-59
2022/05/29 18:39:48;;;;;;;13.30;7.55;;;;;;;;;;6274802;28;20054;-59
2022/05/29 18:42:51;;;;;;;21.77;10.15;;;;;;;;;;6275074;28;20064;-60
2022/05/29 18:45:52;;;;;;;16.25;9.30;;;;;;;;;;6271902;28;20669;-60
2022/05/29 18:48:52;;;;;;;21.52;11.18;;;;;;;;;;6274512;28;20067;-60
2022/05/29 18:51:53;;;;;;;22.67;11.88;;;;;;;;;;6273642;28;20063;-59
2022/05/29 18:54:53;;;;;;;18.65;10.82;;;;;;;;;;6270374;28;20053;-61
2022/05/29 18:57:54;;;;;;;22.90;12.98;;;;;;;;;;6275377;28;20075;-60
2022/05/29 19:00:55;;;;;;;25.52;14.77;;;;;;;;;;6274299;28;20102;-61
2022/05/29 19:03:56;;;;;;;24.67;14.85;;;;;;;;;;6270272;28;20045;-60
2022/05/29 19:06:57;;;;;;;24.47;13.40;;;;;;;;;;6269900;28;20055;-61
2022/05/29 19:09:59;;;;;;;20.92;12.82;;;;;;;;;;6253744;28;20044;-59
2022/05/29 19:12:59;;;;;;;18.50;10.75;;;;;;;;;;6272688;28;20052;-60
2022/05/29 19:16:08;;;;;;;13.77;7.97;;;;;;;;;;6268741;28;20111;-60
2022/05/29 19:19:11;;;;;;;9.80;6.10;;;;;;;;;;6269854;28;20133;-60
2022/05/29 19:22:12;;;;;;;10.02;6.22;;;;;;;;;;6269421;28;20056;-58
2022/05/29 19:25:13;;;;;;;11.13;5.90;;;;;;;;;;6271015;28;20048;-60
2022/05/29 19:28:14;;;;;;;8.55;5.40;;;;;;;;;;6273004;28;20101;-60
2022/05/29 19:31:15;;;;;;;8.23;5.70;;;;;;;;;;6270794;28;20052;-61
2022/05/29 19:34:16;;;;;;;10.40;5.57;;;;;;;;;;6268680;28;20134;-60
2022/05/29 19:37:17;;;;;;;10.52;5.72;;;;;;;;;;6267677;28;20915;-60